Terminal Aerodrome Forecast
Issued by NWS Shreveport, LA

Home | Current Version | Previous Version | Text Only | Print | Product List | Glossary On
Versions: 1 2 3 4 5 6 7 8 9 10 11 12 13 14
000
FTUS44 KSHV 301700
TAFLFK
TAF
KLFK 301737Z 3018/3118 VRB03KT P6SM VCTS SCT020 BKN035CB
     FM310000 15005KT P6SM BKN040
     FM310300 16005KT P6SM SCT035 BKN250
     FM310600 15005KT P6SM BKN012
     FM311500 18008KT P6SM BKN025=

USA.gov is the U.S. government's official web portal to all federal, state and local government web resources and services.